Time;durP1;ratioP1;P1;durP2;ratioP2;P2;SDS_P1;SDS_P2;PMS_P1;PMS_P2;Temp;Humidity;BMP_temperature;BMP_pressure;BME280_temperature;BME280_humidity;BME280_pressure;Samples;Min_cycle;Max_cycle;Signal;HPM_P1;HPM_P2
2022/10/27 00:00:16;;;;;;;19.20;11.80;;;16.60;99.90;;;;;;5135845;27;20201;-72
2022/10/27 00:02:41;;;;;;;20.53;13.70;;;16.60;99.90;;;;;;5117605;27;20179;-72
2022/10/27 00:05:07;;;;;;;18.90;12.30;;;16.60;99.90;;;;;;5117590;27;20274;-77
2022/10/27 00:07:36;;;;;;;17.27;12.30;;;16.50;99.90;;;;;;5136137;27;20171;-72
2022/10/27 00:10:03;;;;;;;14.77;12.13;;;16.50;99.90;;;;;;5136105;27;20636;-72
2022/10/27 00:12:30;;;;;;;21.23;12.60;;;16.50;99.90;;;;;;5135782;27;20410;-72
2022/10/27 00:14:55;;;;;;;17.40;12.03;;;16.50;99.90;;;;;;5117493;27;21040;-72
2022/10/27 00:17:21;;;;;;;15.80;13.00;;;16.50;99.90;;;;;;5117350;27;20412;-72
2022/10/27 00:19:47;;;;;;;17.03;12.60;;;16.50;99.90;;;;;;5135512;27;20204;-72
2022/10/27 00:22:12;;;;;;;17.97;12.37;;;16.50;99.90;;;;;;5117208;27;20171;-76
2022/10/27 00:24:38;;;;;;;15.80;12.57;;;16.40;99.90;;;;;;5135402;27;20640;-72
2022/10/27 00:27:05;;;;;;;18.93;12.30;;;16.40;99.90;;;;;;5117241;27;20203;-77
2022/10/27 00:29:30;;;;;;;18.97;12.17;;;16.40;99.90;;;;;;5117163;27;20500;-72
2022/10/27 00:31:56;;;;;;;19.83;11.87;;;16.40;99.90;;;;;;5117120;27;20175;-73
2022/10/27 00:34:21;;;;;;;18.60;12.37;;;16.30;99.90;;;;;;5116976;27;20171;-77
2022/10/27 00:36:47;;;;;;;19.10;13.10;;;16.30;99.90;;;;;;5135344;27;20179;-72
2022/10/27 00:39:12;;;;;;;17.40;12.53;;;16.30;99.90;;;;;;5116900;27;20167;-77
2022/10/27 00:41:40;;;;;;;20.83;13.97;;;16.30;99.90;;;;;;5135498;27;20229;-77
2022/10/27 00:44:36;;;;;;;15.40;11.33;;;16.30;99.90;;;;;;5116724;27;20319;-77
2022/10/27 00:47:28;;;;;;;17.63;11.93;;;16.30;99.90;;;;;;5135207;27;20430;-72
2022/10/27 00:50:17;;;;;;;16.77;11.80;;;16.30;99.90;;;;;;5135573;27;20423;-72
2022/10/27 00:52:47;;;;;;;19.43;12.13;;;16.30;99.90;;;;;;5135214;27;20406;-77
2022/10/27 00:55:23;;;;;;;19.43;13.20;;;16.30;99.90;;;;;;5134854;27;20522;-77
2022/10/27 00:57:54;;;;;;;17.13;13.00;;;16.20;99.90;;;;;;5135171;27;20406;-72
2022/10/27 01:00:19;;;;;;;19.80;13.40;;;16.20;99.90;;;;;;5135486;27;20431;-77
2022/10/27 01:02:45;;;;;;;19.07;13.97;;;16.20;99.90;;;;;;5116678;27;20418;-76
2022/10/27 01:05:17;;;;;;;16.50;12.93;;;16.20;99.90;;;;;;5116474;27;20211;-77
2022/10/27 01:07:45;;;;;;;19.80;14.23;;;16.20;99.90;;;;;;5116537;27;20908;-77
2022/10/27 01:10:11;;;;;;;21.63;14.70;;;16.10;99.90;;;;;;5134557;27;20442;-77
2022/10/27 01:12:38;;;;;;;22.30;14.37;;;16.10;99.90;;;;;;5134876;27;20451;-77
2022/10/27 01:15:04;;;;;;;18.30;13.67;;;16.10;99.90;;;;;;5135177;27;20915;-72
2022/10/27 01:17:42;;;;;;;24.03;15.10;;;16.10;99.90;;;;;;5116417;28;20442;-76
2022/10/27 01:20:44;;;;;;;19.40;13.80;;;16.00;99.90;;;;;;5116393;28;20450;-72
2022/10/27 01:23:25;;;;;;;18.97;13.57;;;16.00;99.90;;;;;;5116191;28;20812;-72
2022/10/27 01:26:10;;;;;;;24.87;13.90;;;15.90;99.90;;;;;;5134442;27;20542;-72
2022/10/27 01:28:57;;;;;;;17.27;12.47;;;15.80;99.90;;;;;;5134912;28;20422;-73
2022/10/27 01:31:29;;;;;;;19.40;12.70;;;15.80;99.90;;;;;;5134838;27;20484;-77
2022/10/27 01:34:03;;;;;;;20.70;13.93;;;15.70;99.90;;;;;;5134853;28;20414;-77
2022/10/27 01:36:46;;;;;;;19.20;13.57;;;15.60;99.90;;;;;;5134658;28;20402;-77
2022/10/27 01:39:25;;;;;;;20.00;14.10;;;15.60;99.90;;;;;;5134802;27;20975;-72
2022/10/27 01:42:15;;;;;;;18.83;12.73;;;15.50;99.90;;;;;;5134647;28;20745;-77
2022/10/27 01:44:47;;;;;;;21.50;13.60;;;15.50;99.90;;;;;;5115405;28;20535;-72
2022/10/27 01:47:13;;;;;;;21.10;13.70;;;15.40;99.90;;;;;;5116119;28;20408;-72
2022/10/27 01:49:41;;;;;;;20.93;13.90;;;15.40;99.90;;;;;;5134775;27;20431;-73
2022/10/27 01:52:46;;;;;;;18.33;13.13;;;15.40;99.90;;;;;;5134445;28;20769;-72
2022/10/27 01:55:19;;;;;;;23.40;14.07;;;15.30;99.90;;;;;;5116278;28;20435;-77
2022/10/27 01:57:45;;;;;;;20.53;12.90;;;15.30;99.90;;;;;;5134497;28;20391;-77
2022/10/27 02:00:11;;;;;;;21.20;14.30;;;15.30;99.90;;;;;;5116022;28;20491;-72
2022/10/27 02:03:00;;;;;;;17.80;13.37;;;15.20;99.90;;;;;;5115981;28;20179;-76
2022/10/27 02:05:35;;;;;;;23.87;16.77;;;15.20;99.90;;;;;;5134202;27;20215;-77
2022/10/27 02:08:09;;;;;;;20.23;15.07;;;15.20;99.90;;;;;;5134188;28;20403;-77
2022/10/27 02:10:45;;;;;;;24.83;15.47;;;15.20;99.90;;;;;;5115795;28;20802;-77
2022/10/27 02:13:11;;;;;;;23.60;15.57;;;15.10;99.90;;;;;;5134240;28;20480;-72
2022/10/27 02:15:44;;;;;;;21.03;14.50;;;15.10;99.90;;;;;;5135286;27;20431;-77
2022/10/27 02:18:14;;;;;;;20.93;15.60;;;15.10;99.90;;;;;;5138070;27;20909;-72
2022/10/27 02:20:44;;;;;;;23.13;14.20;;;15.10;99.90;;;;;;5119658;27;20541;-77
2022/10/27 02:23:15;;;;;;;21.90;15.30;;;15.10;99.90;;;;;;5119433;27;20414;-72
2022/10/27 02:26:03;;;;;;;26.00;16.20;;;15.10;99.90;;;;;;5119321;27;20862;-72
2022/10/27 02:28:36;;;;;;;28.13;15.70;;;15.10;99.90;;;;;;5085655;27;20419;-77
2022/10/27 02:31:04;;;;;;;21.23;15.23;;;15.10;99.90;;;;;;5137845;27;20480;-72
2022/10/27 02:33:29;;;;;;;19.20;13.50;;;15.10;99.90;;;;;;5119293;27;20422;-77
2022/10/27 02:35:56;;;;;;;19.63;13.73;;;15.10;99.90;;;;;;5119354;27;20427;-73
2022/10/27 02:38:22;;;;;;;20.87;14.87;;;15.00;99.90;;;;;;5137649;27;20220;-72
2022/10/27 02:40:48;;;;;;;26.57;16.00;;;15.00;99.90;;;;;;5137496;27;20832;-72
2022/10/27 02:43:13;;;;;;;20.13;14.33;;;15.00;99.90;;;;;;5119091;27;20166;-77
2022/10/27 02:45:39;;;;;;;22.37;16.27;;;14.90;99.90;;;;;;5119117;27;20442;-72
2022/10/27 02:48:05;;;;;;;30.83;17.83;;;14.90;99.90;;;;;;5137398;27;20163;-72
2022/10/27 02:50:30;;;;;;;27.30;18.20;;;14.80;99.90;;;;;;5137579;27;20191;-76
2022/10/27 02:52:56;;;;;;;24.33;16.80;;;14.80;99.90;;;;;;5137487;27;20164;-77
2022/10/27 02:55:21;;;;;;;26.40;15.10;;;14.80;99.90;;;;;;5137841;27;20191;-77
2022/10/27 02:57:47;;;;;;;27.87;17.17;;;14.80;99.90;;;;;;5137376;27;20171;-76
2022/10/27 03:00:13;;;;;;;23.90;15.23;;;14.80;99.90;;;;;;5137685;27;20202;-72
2022/10/27 03:02:39;;;;;;;23.80;15.00;;;14.80;99.90;;;;;;5118769;27;20185;-72
2022/10/27 03:05:05;;;;;;;24.80;14.03;;;14.80;99.90;;;;;;5137481;27;20475;-77
2022/10/27 03:07:30;;;;;;;21.07;14.20;;;14.80;99.90;;;;;;5137175;27;20191;-73
2022/10/27 03:09:56;;;;;;;23.23;14.73;;;14.80;99.90;;;;;;5118694;27;20959;-77
2022/10/27 03:12:22;;;;;;;21.53;14.20;;;14.90;99.90;;;;;;5137052;27;20171;-73
2022/10/27 03:14:47;;;;;;;21.50;15.20;;;14.90;99.90;;;;;;5136820;27;20222;-77
2022/10/27 03:17:13;;;;;;;21.10;14.00;;;14.90;99.90;;;;;;5136995;27;20183;-75
2022/10/27 03:19:38;;;;;;;20.40;14.10;;;14.90;99.90;;;;;;5137123;27;20199;-77
2022/10/27 03:22:04;;;;;;;23.73;14.37;;;14.90;99.90;;;;;;5136906;27;20522;-76
2022/10/27 03:24:30;;;;;;;25.20;14.83;;;14.90;99.90;;;;;;5136635;27;20734;-72
2022/10/27 03:26:55;;;;;;;23.00;14.30;;;15.00;99.90;;;;;;5118211;27;20163;-77
2022/10/27 03:29:22;;;;;;;22.30;13.67;;;15.00;99.90;;;;;;5136992;27;20187;-77
2022/10/27 03:31:48;;;;;;;21.73;15.40;;;15.10;99.90;;;;;;5118260;27;20181;-76
2022/10/27 03:34:13;;;;;;;21.93;14.10;;;15.10;99.90;;;;;;5118169;27;20792;-77
2022/10/27 03:36:39;;;;;;;24.27;15.13;;;15.10;99.90;;;;;;5136569;27;20407;-76
2022/10/27 03:39:05;;;;;;;20.63;14.30;;;15.10;99.90;;;;;;5136527;27;20175;-72
2022/10/27 03:41:30;;;;;;;21.80;14.33;;;15.10;99.90;;;;;;5118023;27;20175;-77
2022/10/27 03:43:56;;;;;;;18.53;13.60;;;15.20;99.90;;;;;;5118114;27;20254;-77
2022/10/27 03:46:22;;;;;;;19.80;13.83;;;15.20;99.90;;;;;;5136254;27;20248;-77
2022/10/27 03:48:47;;;;;;;20.10;14.27;;;15.20;99.90;;;;;;5136276;27;20185;-72
2022/10/27 03:51:13;;;;;;;21.37;12.70;;;15.20;99.90;;;;;;5117867;27;20198;-72
2022/10/27 03:53:38;;;;;;;20.63;13.63;;;15.20;99.90;;;;;;5117948;27;20214;-77
2022/10/27 03:56:04;;;;;;;24.80;17.47;;;15.20;99.90;;;;;;5136151;27;20269;-72
2022/10/27 03:58:30;;;;;;;19.63;14.60;;;15.20;99.90;;;;;;5117785;27;20650;-73
2022/10/27 04:01:01;;;;;;;23.03;13.20;;;15.20;99.90;;;;;;5136012;27;20423;-72
2022/10/27 04:03:26;;;;;;;26.87;16.07;;;15.30;99.90;;;;;;5136160;27;20174;-72
2022/10/27 04:05:52;;;;;;;23.93;14.20;;;15.30;99.90;;;;;;5117498;27;20427;-72
2022/10/27 04:08:18;;;;;;;24.73;14.53;;;15.30;99.90;;;;;;5135946;27;20171;-78
2022/10/27 04:10:45;;;;;;;21.53;14.47;;;15.30;99.90;;;;;;5135661;27;20217;-72
2022/10/27 04:13:10;;;;;;;25.50;15.03;;;15.40;99.90;;;;;;5135676;27;20163;-72
2022/10/27 04:15:36;;;;;;;21.20;13.40;;;15.40;99.90;;;;;;5117379;27;20841;-72
2022/10/27 04:18:02;;;;;;;24.30;15.47;;;15.40;99.90;;;;;;5135038;27;20170;-77
2022/10/27 04:20:28;;;;;;;19.53;13.80;;;15.40;99.90;;;;;;5134998;27;20210;-72
2022/10/27 04:22:55;;;;;;;17.23;12.40;;;15.40;99.90;;;;;;5115096;28;20445;-72
2022/10/27 04:25:21;;;;;;;22.83;14.47;;;15.40;99.90;;;;;;5115528;27;20475;-78
2022/10/27 04:27:47;;;;;;;23.53;14.03;;;15.40;99.90;;;;;;5135442;27;20419;-73
2022/10/27 04:30:12;;;;;;;19.67;14.00;;;15.40;99.90;;;;;;5116602;27;20450;-77
2022/10/27 04:32:38;;;;;;;23.97;15.10;;;15.40;99.90;;;;;;5134988;27;20236;-76
2022/10/27 04:35:05;;;;;;;20.87;14.73;;;15.40;99.90;;;;;;5135174;27;20219;-72
2022/10/27 04:37:31;;;;;;;19.87;12.97;;;15.50;99.90;;;;;;5132837;27;20237;-72
2022/10/27 04:39:57;;;;;;;20.00;14.60;;;15.50;99.90;;;;;;5114984;27;20434;-72
2022/10/27 04:42:22;;;;;;;22.10;13.83;;;15.40;99.90;;;;;;5134320;27;20399;-73
2022/10/27 04:44:48;;;;;;;18.20;13.80;;;15.50;99.90;;;;;;5132992;27;20236;-72
2022/10/27 04:47:13;;;;;;;23.27;16.87;;;15.50;99.90;;;;;;5133516;27;20211;-75
2022/10/27 04:49:39;;;;;;;28.77;22.63;;;15.50;99.90;;;;;;5115484;27;20199;-77
2022/10/27 04:52:05;;;;;;;26.27;18.97;;;15.40;99.90;;;;;;5134163;27;20406;-77
2022/10/27 04:54:30;;;;;;;22.57;17.47;;;15.40;99.90;;;;;;5135004;27;20213;-78
2022/10/27 04:56:56;;;;;;;32.60;24.20;;;15.40;99.90;;;;;;5134501;27;20235;-72
2022/10/27 04:59:21;;;;;;;32.20;21.60;;;15.40;99.90;;;;;;5134271;27;20175;-72
2022/10/27 05:01:47;;;;;;;26.73;17.90;;;15.40;99.90;;;;;;5110553;27;20539;-75
2022/10/27 05:04:13;;;;;;;26.27;16.30;;;15.40;99.90;;;;;;5115737;27;20206;-78
2022/10/27 05:06:38;;;;;;;20.67;15.00;;;15.40;99.90;;;;;;5125205;27;20302;-72
2022/10/27 05:09:04;;;;;;;25.00;15.83;;;15.30;99.90;;;;;;5112838;28;20179;-72
2022/10/27 05:11:30;;;;;;;19.97;13.97;;;15.40;99.90;;;;;;5114177;28;20195;-77
2022/10/27 05:13:55;;;;;;;24.20;14.13;;;15.30;99.90;;;;;;5112955;28;20636;-72
2022/10/27 05:16:21;;;;;;;21.43;13.87;;;15.30;99.90;;;;;;5115876;27;20195;-78
2022/10/27 05:18:46;;;;;;;24.73;16.80;;;15.30;99.90;;;;;;5116034;27;20179;-78
2022/10/27 05:21:12;;;;;;;31.70;20.27;;;15.30;99.90;;;;;;5133430;27;20191;-72
2022/10/27 05:23:38;;;;;;;23.87;17.73;;;15.20;99.90;;;;;;5134177;27;20167;-72
2022/10/27 05:26:03;;;;;;;25.63;17.47;;;15.20;99.90;;;;;;5114228;28;20313;-77
2022/10/27 05:28:29;;;;;;;23.67;16.30;;;15.20;99.90;;;;;;5131773;28;20418;-77
2022/10/27 05:30:59;;;;;;;31.20;18.63;;;15.10;99.90;;;;;;5132439;27;20198;-77
2022/10/27 05:33:25;;;;;;;27.33;16.97;;;15.10;99.90;;;;;;5114702;28;20175;-77
2022/10/27 05:35:51;;;;;;;28.33;16.63;;;15.10;99.90;;;;;;5108166;28;20454;-77
2022/10/27 05:38:17;;;;;;;24.40;16.70;;;15.10;99.90;;;;;;5104330;28;20435;-72
2022/10/27 05:40:42;;;;;;;24.30;17.17;;;15.00;99.90;;;;;;5114608;28;20195;-77
2022/10/27 05:43:09;;;;;;;24.30;16.40;;;15.00;99.90;;;;;;5133154;28;20268;-72
2022/10/27 05:45:34;;;;;;;24.30;17.07;;;15.00;99.90;;;;;;5111917;28;20476;-78
2022/10/27 05:48:05;;;;;;;27.00;17.87;;;15.00;99.90;;;;;;5132948;28;20399;-72
2022/10/27 05:50:33;;;;;;;32.77;18.87;;;15.00;99.90;;;;;;5115776;27;20206;-72
2022/10/27 05:52:59;;;;;;;32.07;19.40;;;15.00;99.90;;;;;;5132732;27;20954;-72
2022/10/27 05:55:25;;;;;;;36.07;19.93;;;15.00;99.90;;;;;;5115963;27;20458;-72
2022/10/27 05:57:59;;;;;;;34.33;22.37;;;15.00;99.90;;;;;;5116042;27;20277;-72
2022/10/27 06:00:31;;;;;;;34.40;22.70;;;14.90;99.90;;;;;;5132391;27;21032;-72
2022/10/27 06:02:58;;;;;;;33.67;21.57;;;14.90;99.90;;;;;;5112778;27;20430;-72
2022/10/27 06:05:25;;;;;;;35.70;22.00;;;14.90;99.90;;;;;;5116712;27;21045;-72
2022/10/27 06:07:51;;;;;;;32.73;22.47;;;14.90;99.90;;;;;;5118410;27;20444;-72
2022/10/27 06:10:16;;;;;;;29.70;21.03;;;15.00;99.90;;;;;;5136710;27;20443;-72
2022/10/27 06:12:42;;;;;;;31.03;18.37;;;15.00;99.90;;;;;;5117709;27;20796;-72
2022/10/27 06:15:08;;;;;;;31.40;19.87;;;15.00;99.90;;;;;;5115186;27;20247;-72
2022/10/27 06:17:33;;;;;;;28.50;18.37;;;15.10;99.90;;;;;;5127247;27;20184;-77
2022/10/27 06:19:59;;;;;;;24.27;16.80;;;15.10;99.90;;;;;;5117138;27;20482;-72
2022/10/27 06:22:25;;;;;;;28.23;16.97;;;15.20;99.90;;;;;;5117090;27;20183;-72
2022/10/27 06:24:50;;;;;;;26.30;16.50;;;15.30;99.90;;;;;;5131507;27;20239;-77
2022/10/27 06:27:16;;;;;;;18.60;14.03;;;15.30;99.90;;;;;;5134971;27;20191;-76
2022/10/27 06:29:41;;;;;;;26.10;17.40;;;15.30;99.90;;;;;;5117316;27;20191;-77
2022/10/27 06:32:07;;;;;;;23.60;14.73;;;15.30;99.90;;;;;;5131580;27;20232;-73
2022/10/27 06:34:33;;;;;;;26.43;16.20;;;15.30;99.90;;;;;;5116320;27;20203;-77
2022/10/27 06:36:58;;;;;;;24.20;17.30;;;15.40;99.90;;;;;;5135479;27;20207;-72
2022/10/27 06:39:24;;;;;;;22.97;16.37;;;15.40;99.90;;;;;;5114824;27;20207;-72
2022/10/27 06:41:50;;;;;;;27.63;17.00;;;15.40;99.90;;;;;;5112823;27;20190;-72
2022/10/27 06:44:15;;;;;;;24.03;16.47;;;15.40;99.90;;;;;;5113953;27;20215;-72
2022/10/27 06:46:41;;;;;;;26.53;16.43;;;15.50;99.90;;;;;;5132312;27;20479;-76
2022/10/27 06:49:07;;;;;;;23.53;15.50;;;15.50;99.90;;;;;;5133818;27;20211;-72
2022/10/27 06:51:32;;;;;;;28.10;16.80;;;15.50;99.90;;;;;;5117332;27;20195;-73
2022/10/27 06:53:58;;;;;;;23.67;15.97;;;15.50;99.90;;;;;;5130231;27;20179;-72
2022/10/27 06:56:23;;;;;;;25.87;17.67;;;15.50;99.90;;;;;;5136242;27;20989;-79
2022/10/27 06:58:49;;;;;;;23.43;15.90;;;15.60;99.90;;;;;;5137143;27;20645;-72
2022/10/27 07:01:15;;;;;;;28.43;17.10;;;15.60;99.90;;;;;;5116702;27;20217;-77
2022/10/27 07:03:41;;;;;;;23.63;15.83;;;15.60;99.90;;;;;;5134950;27;20171;-76
2022/10/27 07:06:06;;;;;;;27.77;19.17;;;15.60;99.90;;;;;;5136960;27;20252;-72
2022/10/27 07:08:32;;;;;;;28.70;17.23;;;15.70;99.90;;;;;;5134987;27;20401;-77
2022/10/27 07:10:58;;;;;;;20.97;16.37;;;15.70;99.90;;;;;;5133099;27;20201;-77
2022/10/27 07:13:24;;;;;;;21.80;15.60;;;15.80;99.90;;;;;;5115451;27;20518;-77
2022/10/27 07:15:49;;;;;;;29.80;18.10;;;15.80;99.90;;;;;;5134243;27;20218;-72
2022/10/27 07:18:15;;;;;;;26.70;17.10;;;15.80;99.90;;;;;;5133988;27;20206;-74
2022/10/27 07:20:47;;;;;;;26.40;16.30;;;15.90;99.90;;;;;;5114955;27;20295;-77
2022/10/27 07:23:13;;;;;;;24.00;16.97;;;15.90;99.90;;;;;;5134468;27;20398;-71
2022/10/27 07:25:38;;;;;;;24.43;16.20;;;15.90;99.90;;;;;;5115666;27;20566;-77
2022/10/27 07:28:05;;;;;;;24.90;17.03;;;16.00;99.90;;;;;;5111862;28;20176;-77
2022/10/27 07:30:39;;;;;;;24.60;16.03;;;16.00;99.90;;;;;;5113651;27;20557;-77
2022/10/27 07:33:05;;;;;;;23.63;17.13;;;16.00;99.90;;;;;;5125794;27;20507;-77
2022/10/27 07:35:32;;;;;;;26.40;18.67;;;16.00;99.90;;;;;;5106391;28;20485;-73
2022/10/27 07:37:58;;;;;;;23.60;16.57;;;16.10;99.90;;;;;;5105141;27;20931;-73
2022/10/27 07:40:24;;;;;;;19.03;14.27;;;16.10;99.90;;;;;;5123589;27;20443;-73
2022/10/27 07:42:52;;;;;;;21.57;15.77;;;16.20;99.90;;;;;;5106715;27;20179;-77
2022/10/27 07:45:20;;;;;;;20.87;15.00;;;16.20;99.90;;;;;;5132803;27;20222;-73
2022/10/27 07:47:51;;;;;;;28.57;16.63;;;16.30;99.90;;;;;;5122902;27;20464;-78
2022/10/27 07:50:19;;;;;;;25.47;16.53;;;16.40;99.90;;;;;;5120094;27;20491;-73
2022/10/27 07:52:47;;;;;;;22.90;15.90;;;16.50;99.90;;;;;;5112755;27;20526;-78
2022/10/27 07:55:14;;;;;;;24.87;15.73;;;16.60;99.90;;;;;;5131474;27;20451;-73
2022/10/27 07:57:41;;;;;;;21.23;15.83;;;16.80;99.90;;;;;;5130701;27;20422;-78
2022/10/27 08:00:10;;;;;;;20.60;15.03;;;17.10;99.90;;;;;;5109395;27;21004;-73
2022/10/27 08:02:35;;;;;;;22.47;14.27;;;17.60;99.90;;;;;;5113108;27;20953;-77
2022/10/27 08:05:01;;;;;;;17.70;14.17;;;18.20;99.90;;;;;;5124580;27;20476;-77
2022/10/27 08:07:28;;;;;;;15.43;12.40;;;19.10;99.90;;;;;;5110776;27;20525;-76
2022/10/27 08:09:53;;;;;;;14.10;11.53;;;20.10;99.90;;;;;;5129552;27;20446;-71
2022/10/27 08:12:19;;;;;;;16.60;12.57;;;21.10;99.90;;;;;;5129015;27;20807;-76
2022/10/27 08:14:45;;;;;;;19.60;13.77;;;22.20;99.90;;;;;;5125982;27;20206;-71
2022/10/27 08:17:12;;;;;;;19.80;13.87;;;23.00;99.90;;;;;;5118275;27;20271;-71
2022/10/27 08:19:38;;;;;;;23.57;13.27;;;23.70;99.90;;;;;;5116902;27;20198;-72
2022/10/27 08:22:04;;;;;;;17.73;13.00;;;24.30;99.90;;;;;;5131236;27;20416;-72
2022/10/27 08:24:30;;;;;;;14.70;11.43;;;24.90;99.90;;;;;;5129778;27;20686;-72
2022/10/27 08:26:55;;;;;;;15.63;12.43;;;25.40;99.90;;;;;;5129015;27;20590;-78
2022/10/27 08:29:21;;;;;;;14.50;12.00;;;25.90;99.90;;;;;;5134444;27;20190;-73
2022/10/27 08:31:47;;;;;;;15.20;13.00;;;26.20;99.90;;;;;;5106626;28;20179;-77
2022/10/27 08:34:12;;;;;;;14.30;12.63;;;26.60;99.90;;;;;;5123128;27;20239;-78
2022/10/27 08:36:38;;;;;;;18.23;14.00;;;26.80;99.90;;;;;;5124181;27;20202;-78
2022/10/27 08:39:10;;;;;;;17.23;13.93;;;26.80;99.90;;;;;;5118348;27;20193;-78
2022/10/27 08:41:45;;;;;;;19.50;13.10;;;26.60;99.90;;;;;;5124239;27;20181;-78
2022/10/27 08:44:26;;;;;;;18.50;13.17;;;26.20;99.90;;;;;;5129954;27;20465;-78
2022/10/27 08:46:54;;;;;;;17.47;13.00;;;25.80;99.90;;;;;;5131860;27;21009;-72
2022/10/27 08:49:27;;;;;;;15.07;12.33;;;25.40;99.90;;;;;;5128648;27;20972;-72
2022/10/27 08:51:56;;;;;;;17.07;13.40;;;24.90;99.90;;;;;;5110609;27;20437;-78
2022/10/27 08:54:24;;;;;;;17.20;13.10;;;24.50;99.90;;;;;;5131181;27;20432;-73
2022/10/27 08:56:52;;;;;;;19.07;14.50;;;24.10;99.90;;;;;;5111194;27;20422;-72
2022/10/27 08:59:22;;;;;;;24.20;14.83;;;23.70;99.90;;;;;;5126657;27;20439;-78
2022/10/27 09:02:22;;;;;;;18.70;14.00;;;23.40;99.90;;;;;;5122427;27;20779;-72
2022/10/27 09:04:56;;;;;;;16.73;13.33;;;23.00;99.90;;;;;;5127114;27;20561;-72
2022/10/27 09:07:35;;;;;;;31.30;20.57;;;22.70;99.90;;;;;;5130009;27;20427;-72
2022/10/27 09:10:12;;;;;;;30.93;20.77;;;22.50;99.90;;;;;;5129587;27;20451;-71
2022/10/27 09:12:58;;;;;;;21.53;16.27;;;22.30;99.90;;;;;;5129725;27;20451;-78
2022/10/27 09:16:00;;;;;;;17.03;14.23;;;22.20;99.90;;;;;;5109270;27;20845;-72
2022/10/27 09:18:29;;;;;;;18.23;14.10;;;22.20;99.90;;;;;;5099096;27;20439;-78
2022/10/27 09:21:00;;;;;;;18.40;14.97;;;22.20;99.90;;;;;;5130238;27;20439;-78
2022/10/27 09:23:34;;;;;;;19.17;14.13;;;22.20;99.90;;;;;;5109579;27;20431;-71
2022/10/27 09:26:00;;;;;;;19.17;14.60;;;22.20;99.90;;;;;;5127505;27;20454;-78
2022/10/27 09:28:44;;;;;;;18.77;14.47;;;22.20;99.90;;;;;;5127197;28;20460;-78
2022/10/27 09:31:35;;;;;;;26.23;14.30;;;22.20;99.90;;;;;;5122989;27;20213;-77
2022/10/27 09:34:29;;;;;;;17.50;13.57;;;22.10;99.90;;;;;;5123335;28;20515;-72
2022/10/27 09:36:56;;;;;;;17.40;13.60;;;22.00;99.90;;;;;;5114775;28;20447;-78
2022/10/27 09:39:22;;;;;;;17.90;13.10;;;22.00;99.90;;;;;;5123120;27;20834;-71
2022/10/27 09:41:48;;;;;;;16.57;14.03;;;22.00;99.90;;;;;;5128065;28;20442;-71
2022/10/27 09:44:22;;;;;;;19.77;14.57;;;22.00;99.90;;;;;;5124544;27;20978;-77
2022/10/27 09:46:55;;;;;;;18.87;14.73;;;21.90;99.90;;;;;;5131078;28;20410;-72
2022/10/27 09:49:33;;;;;;;17.17;13.30;;;21.80;99.90;;;;;;5129981;28;20455;-78
2022/10/27 09:52:04;;;;;;;17.33;14.00;;;21.80;99.90;;;;;;5113120;28;20418;-72
2022/10/27 09:54:37;;;;;;;15.80;13.17;;;21.80;99.90;;;;;;5098019;28;20443;-78
2022/10/27 09:57:09;;;;;;;19.17;14.60;;;21.80;99.90;;;;;;5116355;28;20475;-71
2022/10/27 09:59:35;;;;;;;19.73;15.17;;;21.80;99.90;;;;;;5112171;28;20451;-78
2022/10/27 10:02:04;;;;;;;16.40;13.50;;;21.80;99.90;;;;;;5113609;28;20411;-77
2022/10/27 10:04:49;;;;;;;18.23;14.60;;;21.80;99.90;;;;;;5129187;27;20479;-72
2022/10/27 10:07:39;;;;;;;21.97;14.43;;;21.80;99.90;;;;;;5101882;28;21011;-72
2022/10/27 10:10:26;;;;;;;19.47;14.00;;;21.80;99.90;;;;;;5123282;28;20466;-77
2022/10/27 10:13:14;;;;;;;17.97;14.60;;;21.80;99.90;;;;;;5105813;28;20438;-71
2022/10/27 10:15:42;;;;;;;16.30;13.50;;;21.90;99.90;;;;;;5106629;28;20456;-78
2022/10/27 10:18:39;;;;;;;20.50;15.37;;;21.90;99.90;;;;;;5115908;28;20466;-72
2022/10/27 10:21:08;;;;;;;17.60;14.40;;;21.90;99.90;;;;;;5011812;28;20455;-79
2022/10/27 10:23:40;;;;;;;32.43;24.13;;;21.90;99.90;;;;;;5095497;28;20427;-71
2022/10/27 10:26:22;;;;;;;29.30;21.67;;;21.80;99.90;;;;;;5096101;28;20506;-71
2022/10/27 10:28:51;;;;;;;20.30;14.40;;;21.80;99.90;;;;;;5117582;28;20435;-78
2022/10/27 10:31:24;;;;;;;21.67;14.93;;;21.70;99.90;;;;;;5117406;28;20948;-71
2022/10/27 10:33:52;;;;;;;20.13;15.27;;;21.70;99.90;;;;;;5092795;28;20503;-78
2022/10/27 10:36:32;;;;;;;21.27;14.23;;;21.70;99.90;;;;;;5095593;27;20439;-72
2022/10/27 10:38:59;;;;;;;19.67;15.10;;;21.70;99.90;;;;;;5124494;27;20440;-72
2022/10/27 10:41:27;;;;;;;20.93;15.87;;;21.60;99.90;;;;;;5106005;27;20447;-78
2022/10/27 10:44:17;;;;;;;21.03;15.27;;;21.60;99.90;;;;;;5116439;27;20484;-77
2022/10/27 10:46:51;;;;;;;23.53;15.90;;;21.60;99.90;;;;;;5094724;27;20434;-74
2022/10/27 10:49:21;;;;;;;24.47;16.30;;;21.60;99.90;;;;;;5124748;27;20520;-72
2022/10/27 10:51:52;;;;;;;21.10;15.50;;;21.60;99.90;;;;;;5107980;27;20480;-79
2022/10/27 10:54:30;;;;;;;17.90;14.00;;;21.60;99.90;;;;;;5107402;27;21004;-73
2022/10/27 10:56:55;;;;;;;19.80;15.67;;;21.60;99.90;;;;;;5096768;27;20427;-73
2022/10/27 10:59:33;;;;;;;20.23;14.47;;;21.60;99.90;;;;;;5100357;27;20810;-79
2022/10/27 11:02:38;;;;;;;21.13;14.47;;;21.60;99.90;;;;;;5116743;27;20551;-73
2022/10/27 11:05:19;;;;;;;17.20;14.93;;;21.60;99.90;;;;;;5017040;28;20490;-71
2022/10/27 11:07:47;;;;;;;20.23;15.13;;;21.60;99.90;;;;;;5014704;28;20451;-71
2022/10/27 11:10:16;;;;;;;20.53;14.47;;;21.60;99.90;;;;;;5077707;27;20459;-71
2022/10/27 11:12:50;;;;;;;19.43;15.00;;;21.60;99.90;;;;;;5100972;27;20951;-77
2022/10/27 11:15:38;;;;;;;19.30;15.50;;;21.60;99.90;;;;;;5122475;27;20454;-71
2022/10/27 11:18:15;;;;;;;21.80;14.80;;;21.60;99.90;;;;;;5113896;27;20432;-71
2022/10/27 11:20:42;;;;;;;17.83;13.50;;;21.60;99.90;;;;;;5118862;27;20887;-71
2022/10/27 11:23:28;;;;;;;22.77;16.97;;;21.60;99.90;;;;;;5117688;27;20419;-77
2022/10/27 11:25:57;;;;;;;24.93;16.57;;;21.60;99.90;;;;;;5114021;27;20478;-71
2022/10/27 11:28:47;;;;;;;17.27;13.87;;;21.60;99.90;;;;;;5097849;27;21049;-77
2022/10/27 11:31:55;;;;;;;23.77;16.57;;;21.50;99.90;;;;;;5112324;27;20442;-72
2022/10/27 11:34:33;;;;;;;20.60;15.00;;;21.60;99.90;;;;;;5085554;27;20546;-71
2022/10/27 11:37:05;;;;;;;21.40;16.10;;;21.60;99.90;;;;;;5102467;27;20446;-71
2022/10/27 11:39:38;;;;;;;28.07;16.63;;;21.60;99.90;;;;;;5101638;27;21127;-77
2022/10/27 11:42:15;;;;;;;24.47;15.33;;;21.60;99.90;;;;;;5121932;27;20446;-71
2022/10/27 11:44:46;;;;;;;21.60;16.47;;;21.60;99.90;;;;;;5094879;28;20982;-71
2022/10/27 11:47:35;;;;;;;21.63;16.30;;;21.60;99.90;;;;;;5102105;28;20786;-71
2022/10/27 11:50:05;;;;;;;22.73;15.50;;;21.60;99.90;;;;;;5103469;27;20467;-71
2022/10/27 11:52:43;;;;;;;20.97;15.33;;;21.60;99.90;;;;;;5106920;27;20423;-77
2022/10/27 11:55:13;;;;;;;23.23;15.30;;;21.60;99.90;;;;;;5100825;27;21080;-77
2022/10/27 11:57:53;;;;;;;20.43;14.93;;;21.60;99.90;;;;;;5125085;27;20431;-71
2022/10/27 12:00:27;;;;;;;22.53;14.43;;;21.60;99.90;;;;;;5126880;27;20434;-77
2022/10/27 12:02:59;;;;;;;18.63;13.80;;;21.60;99.90;;;;;;5120843;27;20442;-71
2022/10/27 12:05:27;;;;;;;23.47;16.40;;;21.60;99.90;;;;;;5124818;27;20521;-71
2022/10/27 12:07:56;;;;;;;18.23;13.30;;;21.60;99.90;;;;;;5106723;27;20442;-77
2022/10/27 12:10:26;;;;;;;20.27;14.37;;;21.60;99.90;;;;;;5105475;27;20758;-71
2022/10/27 12:13:06;;;;;;;20.60;13.93;;;21.60;99.90;;;;;;5123780;27;20770;-77
2022/10/27 12:15:45;;;;;;;23.20;14.70;;;21.60;99.90;;;;;;5125224;27;20435;-77
2022/10/27 12:18:27;;;;;;;20.10;13.70;;;21.60;99.90;;;;;;5106332;27;20495;-77
2022/10/27 12:21:04;;;;;;;18.50;12.70;;;21.60;99.90;;;;;;5106471;27;20920;-77
2022/10/27 12:23:37;;;;;;;19.87;13.30;;;21.60;99.90;;;;;;5106792;27;20484;-77
2022/10/27 12:26:29;;;;;;;21.37;13.80;;;21.60;99.90;;;;;;5108794;27;20471;-72
2022/10/27 12:28:57;;;;;;;18.90;13.27;;;21.60;99.90;;;;;;5071713;27;20443;-71
2022/10/27 12:31:27;;;;;;;19.23;12.20;;;21.60;99.90;;;;;;5126807;27;20814;-71
2022/10/27 12:33:56;;;;;;;18.27;10.77;;;21.60;99.90;;;;;;5108243;27;20917;-71
2022/10/27 12:36:48;;;;;;;17.30;11.50;;;21.60;99.90;;;;;;5127830;27;20452;-77
2022/10/27 12:39:41;;;;;;;17.30;13.10;;;21.60;99.90;;;;;;5096125;27;20942;-71
2022/10/27 12:42:22;;;;;;;18.40;13.40;;;21.70;99.90;;;;;;5114146;27;20936;-71
2022/10/27 12:45:00;;;;;;;16.83;12.30;;;21.70;99.90;;;;;;5117774;27;20719;-77